Time;durP1;ratioP1;P1;durP2;ratioP2;P2;SDS_P1;SDS_P2;PMS_P1;PMS_P2;Temp;Humidity;BMP_temperature;BMP_pressure;BME280_temperature;BME280_humidity;BME280_pressure;Samples;Min_cycle;Max_cycle;Signal;HPM_P1;HPM_P2
2022/04/21 00:00:45;;;;;;;17.58;12.15;;;;;;;;;;5032669;28;20057;-64
2022/04/21 00:03:11;;;;;;;16.35;11.70;;;;;;;;;;5026885;28;20045;-64
2022/04/21 00:05:39;;;;;;;17.05;13.00;;;;;;;;;;5025632;28;20069;-63
2022/04/21 00:08:05;;;;;;;19.35;13.27;;;;;;;;;;5028238;28;20083;-63
2022/04/21 00:10:31;;;;;;;18.75;13.68;;;;;;;;;;5034717;28;20040;-64
2022/04/21 00:12:58;;;;;;;20.63;13.38;;;;;;;;;;5030434;28;20076;-64
2022/04/21 00:15:24;;;;;;;20.15;12.52;;;;;;;;;;5051989;28;20040;-64
2022/04/21 00:17:50;;;;;;;19.38;12.48;;;;;;;;;;5031087;28;20037;-63
2022/04/21 00:20:17;;;;;;;15.48;12.32;;;;;;;;;;5035385;28;20076;-65
2022/04/21 00:25:29;;;;;;;19.00;13.70;;;;;;;;;;5049262;28;20510;-63
2022/04/21 00:27:56;;;;;;;18.77;13.48;;;;;;;;;;5029696;28;20120;-65
2022/04/21 00:30:22;;;;;;;19.20;12.48;;;;;;;;;;5034700;28;20041;-64
2022/04/21 00:32:48;;;;;;;16.70;12.90;;;;;;;;;;5065542;28;20045;-63
2022/04/21 00:35:15;;;;;;;18.58;13.13;;;;;;;;;;5034267;28;20121;-64
2022/04/21 00:37:49;;;;;;;17.33;13.07;;;;;;;;;;5031663;28;20045;-64
2022/04/21 00:40:15;;;;;;;;;;;;;;;;;;5028889;28;20106;-64
2022/04/21 00:42:41;;;;;;;20.30;12.77;;;;;;;;;;5031797;28;19959;-63
2022/04/21 00:45:07;;;;;;;14.48;11.55;;;;;;;;;;5057632;28;20187;-63
2022/04/21 00:47:33;;;;;;;16.17;11.77;;;;;;;;;;5033287;28;20476;-63
2022/04/21 00:50:00;;;;;;;15.93;12.07;;;;;;;;;;5034525;28;20044;-64
2022/04/21 00:52:26;;;;;;;15.43;11.68;;;;;;;;;;5035796;28;20033;-63
2022/04/21 00:54:53;;;;;;;18.63;12.70;;;;;;;;;;5017446;28;20107;-63
2022/04/21 00:57:20;;;;;;;15.98;12.73;;;;;;;;;;5050683;28;20123;-64
2022/04/21 00:59:46;;;;;;;18.33;13.75;;;;;;;;;;5034261;28;20521;-63
2022/04/21 01:04:59;;;;;;;15.05;12.18;;;;;;;;;;5032391;28;20118;-64
2022/04/21 01:07:25;;;;;;;18.65;12.27;;;;;;;;;;5030389;28;20037;-64
2022/04/21 01:09:55;;;;;;;16.75;11.55;;;;;;;;;;5056421;28;20123;-63
2022/04/21 01:12:23;;;;;;;15.63;11.07;;;;;;;;;;5035206;28;20046;-63
2022/04/21 01:14:49;;;;;;;13.63;10.70;;;;;;;;;;5037763;28;20046;-63
2022/04/21 01:17:16;;;;;;;13.50;10.68;;;;;;;;;;5034891;28;20096;-63
2022/04/21 01:19:42;;;;;;;14.32;11.18;;;;;;;;;;5033570;28;20128;-63
2022/04/21 01:22:10;;;;;;;14.23;9.18;;;;;;;;;;5036582;28;20052;-63
2022/04/21 01:24:36;;;;;;;14.07;9.70;;;;;;;;;;5035501;28;20543;-64
2022/04/21 01:27:02;;;;;;;14.15;9.20;;;;;;;;;;5033763;28;20753;-64
2022/04/21 01:29:29;;;;;;;11.13;8.43;;;;;;;;;;5055041;28;20033;-64
2022/04/21 01:31:55;;;;;;;14.70;10.75;;;;;;;;;;5057681;28;20060;-64
2022/04/21 01:34:21;;;;;;;13.25;9.55;;;;;;;;;;5068198;28;20483;-64
2022/04/21 01:42:18;;;;;;;12.82;10.82;;;;;;;;;;5033023;28;20128;-63
2022/04/21 01:44:44;;;;;;;15.18;11.50;;;;;;;;;;5014805;28;20048;-63
2022/04/21 01:47:11;;;;;;;15.07;10.40;;;;;;;;;;5037701;28;20041;-63
2022/04/21 01:49:37;;;;;;;14.18;11.48;;;;;;;;;;5041720;28;20045;-64
2022/04/21 01:52:04;;;;;;;15.68;11.18;;;;;;;;;;5034015;28;20463;-64
2022/04/21 01:54:33;;;;;;;17.65;11.10;;;;;;;;;;5032911;28;20037;-63
2022/04/21 01:56:59;;;;;;;14.90;10.05;;;;;;;;;;5056840;28;20052;-64
2022/04/21 01:59:25;;;;;;;14.27;10.93;;;;;;;;;;5034703;28;20884;-64
2022/04/21 02:01:51;;;;;;;15.13;10.27;;;;;;;;;;5039020;28;20534;-64
2022/04/21 02:04:17;;;;;;;13.95;10.15;;;;;;;;;;5051083;28;20030;-63
2022/04/21 02:06:43;;;;;;;17.25;10.98;;;;;;;;;;5031242;28;20694;-64
2022/04/21 02:09:09;;;;;;;14.55;11.02;;;;;;;;;;5015686;28;20077;-64
2022/04/21 02:11:35;;;;;;;15.52;11.00;;;;;;;;;;5033420;28;20044;-62
2022/04/21 02:14:01;;;;;;;15.07;11.05;;;;;;;;;;5054391;28;20072;-63
2022/04/21 02:16:27;;;;;;;11.50;8.90;;;;;;;;;;5013365;28;20124;-64
2022/04/21 02:18:54;;;;;;;14.07;9.82;;;;;;;;;;5034022;28;20116;-64
2022/04/21 02:21:20;;;;;;;13.23;9.88;;;;;;;;;;5052570;28;20118;-63
2022/04/21 02:23:46;;;;;;;12.75;9.43;;;;;;;;;;5030899;28;20081;-64
2022/04/21 02:26:12;;;;;;;14.40;10.10;;;;;;;;;;5052749;28;20050;-63
2022/04/21 02:28:41;;;;;;;15.00;10.77;;;;;;;;;;5013508;28;20516;-63
2022/04/21 02:31:07;;;;;;;13.63;10.07;;;;;;;;;;5032762;28;20099;-64
2022/04/21 02:33:33;;;;;;;13.38;9.88;;;;;;;;;;5035846;28;20364;-64
2022/04/21 02:35:59;;;;;;;12.63;8.98;;;;;;;;;;5056441;28;20046;-64
2022/04/21 02:38:26;;;;;;;13.73;9.82;;;;;;;;;;5032560;28;20550;-63
2022/04/21 02:40:52;;;;;;;14.65;10.00;;;;;;;;;;5014275;28;20045;-65
2022/04/21 02:43:19;;;;;;;12.52;9.55;;;;;;;;;;5053282;28;20045;-63
2022/04/21 02:45:45;;;;;;;12.30;9.05;;;;;;;;;;5030925;28;20519;-63
2022/04/21 02:48:11;;;;;;;11.52;8.45;;;;;;;;;;5016867;28;20041;-63
2022/04/21 02:50:37;;;;;;;13.65;9.52;;;;;;;;;;5019788;28;20049;-64
2022/04/21 02:53:04;;;;;;;12.18;10.15;;;;;;;;;;5056497;28;20045;-64
2022/04/21 02:58:15;;;;;;;12.52;9.18;;;;;;;;;;5037130;28;20044;-65
2022/04/21 03:00:41;;;;;;;10.68;9.13;;;;;;;;;;5030420;28;20195;-63
2022/04/21 03:03:07;;;;;;;12.32;9.13;;;;;;;;;;5037668;28;21601;-63
2022/04/21 03:05:33;;;;;;;11.80;9.52;;;;;;;;;;5054821;28;20037;-64
2022/04/21 03:07:59;;;;;;;13.75;9.75;;;;;;;;;;5034078;28;20033;-63
2022/04/21 03:10:26;;;;;;;11.27;8.82;;;;;;;;;;5038764;28;20783;-62
2022/04/21 03:12:52;;;;;;;12.23;8.95;;;;;;;;;;5065935;28;20041;-63
2022/04/21 03:15:18;;;;;;;12.93;9.13;;;;;;;;;;5041543;28;20529;-64
2022/04/21 03:17:44;;;;;;;13.40;9.90;;;;;;;;;;5044712;28;20041;-62
2022/04/21 03:24:18;;;;;;;11.60;9.40;;;;;;;;;;5015347;28;20055;-63
2022/04/21 03:25:44;;;;;;;14.10;9.63;;;;;;;;;;5029998;28;20537;-63
2022/04/21 03:28:11;;;;;;;12.45;10.27;;;;;;;;;;5029759;28;20454;-62
2022/04/21 03:30:38;;;;;;;9.93;8.73;;;;;;;;;;5029746;28;20037;-62
2022/04/21 03:33:04;;;;;;;13.82;10.15;;;;;;;;;;5019287;28;20048;-63
2022/04/21 03:35:30;;;;;;;11.15;9.13;;;;;;;;;;5055438;28;20479;-61
2022/04/21 03:37:56;;;;;;;14.70;9.60;;;;;;;;;;5031207;28;20065;-61
2022/04/21 03:40:22;;;;;;;13.65;10.60;;;;;;;;;;5058319;28;20037;-61
2022/04/21 03:42:48;;;;;;;13.23;10.10;;;;;;;;;;5037860;28;20045;-61
2022/04/21 03:45:14;;;;;;;13.27;10.35;;;;;;;;;;5030466;28;20042;-61
2022/04/21 03:47:41;;;;;;;12.40;9.20;;;;;;;;;;5030238;28;20069;-63
2022/04/21 03:50:07;;;;;;;13.60;10.27;;;;;;;;;;5029386;28;20437;-62
2022/04/21 03:52:33;;;;;;;13.30;10.57;;;;;;;;;;5029293;28;20045;-61
2022/04/21 03:54:59;;;;;;;12.93;10.52;;;;;;;;;;5034745;28;20036;-61
2022/04/21 03:57:27;;;;;;;14.43;10.45;;;;;;;;;;5029034;28;20095;-63
2022/04/21 03:59:53;;;;;;;13.57;11.07;;;;;;;;;;5032223;28;20820;-63
2022/04/21 04:02:19;;;;;;;13.40;10.40;;;;;;;;;;5027659;28;20045;-62
2022/04/21 04:04:45;;;;;;;13.20;11.00;;;;;;;;;;5052780;28;20120;-62
2022/04/21 04:12:41;;;;;;;16.27;11.85;;;;;;;;;;5047911;28;20100;-64
2022/04/21 04:15:07;;;;;;;15.15;11.18;;;;;;;;;;5010810;28;20038;-63
2022/04/21 04:17:34;;;;;;;16.30;11.82;;;;;;;;;;5027120;28;20045;-62
2022/04/21 04:20:00;;;;;;;13.32;10.98;;;;;;;;;;5039940;28;20050;-68
2022/04/21 04:22:27;;;;;;;16.25;12.43;;;;;;;;;;5032111;28;20061;-62
2022/04/21 04:24:56;;;;;;;13.05;11.75;;;;;;;;;;5050178;28;20037;-63
2022/04/21 04:27:22;;;;;;;13.15;10.90;;;;;;;;;;5034704;28;20110;-63
2022/04/21 04:29:50;;;;;;;14.63;11.25;;;;;;;;;;5035337;28;20439;-64
2022/04/21 04:32:16;;;;;;;14.15;10.38;;;;;;;;;;5026486;28;20156;-62
2022/04/21 04:34:43;;;;;;;13.75;11.15;;;;;;;;;;5030970;28;20037;-63
2022/04/21 04:37:09;;;;;;;16.83;12.07;;;;;;;;;;5037477;28;20049;-64
2022/04/21 04:39:35;;;;;;;14.00;11.32;;;;;;;;;;5059582;28;20064;-62
2022/04/21 04:42:16;;;;;;;13.05;10.68;;;;;;;;;;5034220;28;20097;-63
2022/04/21 04:44:43;;;;;;;13.55;11.00;;;;;;;;;;5028559;28;20518;-63
2022/04/21 04:47:09;;;;;;;13.57;12.18;;;;;;;;;;5052977;28;20046;-62
2022/04/21 04:49:38;;;;;;;15.32;12.25;;;;;;;;;;5034678;28;20037;-62
2022/04/21 04:52:05;;;;;;;14.77;12.35;;;;;;;;;;5028231;28;20041;-63
2022/04/21 04:54:31;;;;;;;14.65;11.30;;;;;;;;;;5016846;28;20040;-62
2022/04/21 04:57:03;;;;;;;13.23;11.27;;;;;;;;;;5028380;28;20053;-64
2022/04/21 04:59:29;;;;;;;14.02;11.07;;;;;;;;;;5028716;28;20046;-64
2022/04/21 05:01:55;;;;;;;19.52;11.55;;;;;;;;;;5052737;28;20518;-64
2022/04/21 05:04:21;;;;;;;11.55;10.13;;;;;;;;;;5027485;28;20130;-62
2022/04/21 05:06:55;;;;;;;12.63;10.48;;;;;;;;;;5031353;28;20570;-63
2022/04/21 05:09:22;;;;;;;11.82;10.38;;;;;;;;;;5045535;28;20048;-63
2022/04/21 05:11:58;;;;;;;13.55;11.45;;;;;;;;;;5032485;28;20028;-67
2022/04/21 05:14:25;;;;;;;12.30;10.43;;;;;;;;;;5038090;28;20045;-63
2022/04/21 05:16:52;;;;;;;13.90;10.27;;;;;;;;;;5052316;28;20095;-64
2022/04/21 05:19:19;;;;;;;13.13;10.77;;;;;;;;;;5051887;28;20037;-63
2022/04/21 05:21:46;;;;;;;11.40;8.82;;;;;;;;;;5028097;28;20107;-63
2022/04/21 05:24:13;;;;;;;11.00;9.68;;;;;;;;;;5035854;28;20075;-63
2022/04/21 05:26:40;;;;;;;13.25;10.50;;;;;;;;;;5031813;28;20557;-63
2022/04/21 05:32:02;;;;;;;12.15;9.10;;;;;;;;;;5007587;28;20137;-63
2022/04/21 05:34:29;;;;;;;11.73;9.30;;;;;;;;;;5043699;28;20193;-63
2022/04/21 05:36:55;;;;;;;11.27;9.40;;;;;;;;;;5025253;28;20042;-62
2022/04/21 05:39:22;;;;;;;9.30;7.80;;;;;;;;;;5029134;28;20057;-63
2022/04/21 05:41:48;;;;;;;9.50;7.53;;;;;;;;;;5027915;28;20475;-63
2022/04/21 05:44:14;;;;;;;9.50;7.97;;;;;;;;;;5026824;28;20095;-63
2022/04/21 05:46:41;;;;;;;8.68;6.93;;;;;;;;;;5027585;28;20385;-62
2022/04/21 05:49:07;;;;;;;9.43;7.22;;;;;;;;;;5025854;28;20048;-63
2022/04/21 05:51:33;;;;;;;9.43;7.20;;;;;;;;;;5056703;28;20125;-64
2022/04/21 05:54:02;;;;;;;7.85;7.03;;;;;;;;;;5029932;28;20045;-63
2022/04/21 05:56:28;;;;;;;8.07;6.57;;;;;;;;;;5034537;28;20075;-63
2022/04/21 05:58:54;;;;;;;7.28;6.22;;;;;;;;;;5033254;28;20037;-64
2022/04/21 06:01:20;;;;;;;10.05;6.40;;;;;;;;;;5033555;28;20052;-66
2022/04/21 06:03:46;;;;;;;10.45;6.10;;;;;;;;;;5034180;28;20091;-67
2022/04/21 06:06:12;;;;;;;7.05;5.93;;;;;;;;;;5037602;28;20515;-62
2022/04/21 06:08:39;;;;;;;6.13;5.13;;;;;;;;;;5038526;28;20063;-62
2022/04/21 06:11:06;;;;;;;6.78;5.68;;;;;;;;;;5036283;28;20120;-62
2022/04/21 06:13:32;;;;;;;6.00;5.32;;;;;;;;;;5039907;28;20115;-61
2022/04/21 06:15:59;;;;;;;8.35;4.88;;;;;;;;;;5032292;28;20049;-62
2022/04/21 06:18:26;;;;;;;5.07;4.57;;;;;;;;;;5037008;28;20542;-62
2022/04/21 06:20:52;;;;;;;5.88;4.78;;;;;;;;;;5032813;28;20566;-63
2022/04/21 06:23:19;;;;;;;10.13;5.13;;;;;;;;;;5055947;28;20048;-62
2022/04/21 06:25:45;;;;;;;6.38;4.43;;;;;;;;;;5056424;28;20073;-62
2022/04/21 06:28:12;;;;;;;7.80;4.35;;;;;;;;;;5035500;28;20045;-61
2022/04/21 06:30:38;;;;;;;5.80;4.03;;;;;;;;;;5033869;28;20465;-61
2022/04/21 06:33:05;;;;;;;4.97;4.00;;;;;;;;;;5034652;28;20033;-62
2022/04/21 06:35:31;;;;;;;7.60;4.30;;;;;;;;;;5032482;28;20361;-60
2022/04/21 06:37:58;;;;;;;4.35;3.88;;;;;;;;;;5018519;28;20389;-62
2022/04/21 06:40:24;;;;;;;5.03;3.55;;;;;;;;;;5037827;28;20044;-62
2022/04/21 06:42:50;;;;;;;3.42;2.97;;;;;;;;;;5039712;28;20045;-62
2022/04/21 06:48:04;;;;;;;4.55;3.40;;;;;;;;;;5029104;28;20081;-62
2022/04/21 06:50:31;;;;;;;3.38;3.08;;;;;;;;;;5031280;28;20152;-62
2022/04/21 06:52:57;;;;;;;5.20;3.13;;;;;;;;;;5055676;28;20053;-61
2022/04/21 06:55:23;;;;;;;4.43;3.65;;;;;;;;;;5035806;28;20446;-62
2022/04/21 06:57:50;;;;;;;3.67;2.80;;;;;;;;;;5033119;28;20116;-61
2022/04/21 07:00:16;;;;;;;4.72;3.25;;;;;;;;;;5053084;28;20052;-63
2022/04/21 07:02:42;;;;;;;5.35;3.30;;;;;;;;;;5033279;28;20037;-62
2022/04/21 07:05:09;;;;;;;3.88;2.75;;;;;;;;;;5036085;28;20160;-61
2022/04/21 07:07:35;;;;;;;3.42;2.65;;;;;;;;;;5028149;28;20052;-62
2022/04/21 07:10:01;;;;;;;5.88;2.95;;;;;;;;;;5056589;28;20050;-62
2022/04/21 07:12:29;;;;;;;3.10;2.58;;;;;;;;;;5035638;28;20049;-61
2022/04/21 07:14:59;;;;;;;3.58;2.50;;;;;;;;;;5035591;28;20051;-62
2022/04/21 07:17:25;;;;;;;8.00;2.47;;;;;;;;;;5013283;28;20559;-61
2022/04/21 07:19:52;;;;;;;6.65;1.95;;;;;;;;;;5056860;28;20050;-61
2022/04/21 07:22:22;;;;;;;3.38;1.85;;;;;;;;;;5036523;28;20077;-62
2022/04/21 07:24:48;;;;;;;2.30;1.85;;;;;;;;;;5035355;28;20044;-62
2022/04/21 07:27:14;;;;;;;3.33;1.73;;;;;;;;;;5057036;28;20045;-61
2022/04/21 07:29:40;;;;;;;3.67;1.83;;;;;;;;;;5034178;28;20041;-62
2022/04/21 07:32:07;;;;;;;3.05;1.90;;;;;;;;;;5032815;28;20492;-61
2022/04/21 07:34:34;;;;;;;3.67;1.70;;;;;;;;;;5039392;28;20043;-61
2022/04/21 07:37:00;;;;;;;3.33;1.85;;;;;;;;;;5030741;28;20056;-62
2022/04/21 07:39:26;;;;;;;3.22;1.75;;;;;;;;;;5032977;28;20503;-62
2022/04/21 07:41:52;;;;;;;2.63;1.30;;;;;;;;;;5054906;28;20124;-62
2022/04/21 07:44:18;;;;;;;3.25;1.50;;;;;;;;;;5037926;28;20041;-62
2022/04/21 07:46:44;;;;;;;1.75;1.25;;;;;;;;;;5051890;28;20053;-62
2022/04/21 07:53:13;;;;;;;3.25;1.50;;;;;;;;;;5031289;28;20049;-62
2022/04/21 07:54:41;;;;;;;4.50;1.60;;;;;;;;;;5029627;28;20033;-64
2022/04/21 07:57:07;;;;;;;2.38;1.30;;;;;;;;;;5030477;28;20045;-62
2022/04/21 07:59:35;;;;;;;4.32;1.40;;;;;;;;;;5031103;28;20041;-61
2022/04/21 08:02:01;;;;;;;2.80;1.05;;;;;;;;;;5036786;28;20455;-63
2022/04/21 08:04:27;;;;;;;3.88;1.35;;;;;;;;;;5018350;28;20472;-63
2022/04/21 08:06:54;;;;;;;1.85;1.25;;;;;;;;;;5032247;28;20029;-63
2022/04/21 08:09:20;;;;;;;2.13;1.10;;;;;;;;;;5031327;28;20055;-63
2022/04/21 08:11:48;;;;;;;1.17;1.00;;;;;;;;;;5033063;28;20037;-64
2022/04/21 08:14:16;;;;;;;2.28;0.77;;;;;;;;;;5035976;28;20079;-65
2022/04/21 08:16:43;;;;;;;2.45;0.77;;;;;;;;;;5030725;28;20102;-63
2022/04/21 08:19:10;;;;;;;1.92;0.60;;;;;;;;;;5055005;28;20099;-62
2022/04/21 08:21:37;;;;;;;2.78;0.70;;;;;;;;;;5030083;28;20488;-63
2022/04/21 08:32:35;;;;;;;2.25;0.80;;;;;;;;;;5030744;28;20096;-63
2022/04/21 08:35:01;;;;;;;1.80;0.90;;;;;;;;;;5034127;28;20487;-63
2022/04/21 08:37:27;;;;;;;5.82;1.00;;;;;;;;;;5034969;28;20489;-63
2022/04/21 08:39:55;;;;;;;1.73;1.08;;;;;;;;;;5013226;28;20049;-63
2022/04/21 08:42:22;;;;;;;1.58;1.00;;;;;;;;;;5010123;28;20132;-63
2022/04/21 08:44:49;;;;;;;1.50;0.80;;;;;;;;;;5020267;28;20135;-62
2022/04/21 08:47:20;;;;;;;2.70;0.90;;;;;;;;;;5034485;28;20377;-63
2022/04/21 08:49:48;;;;;;;2.28;0.85;;;;;;;;;;5031942;28;20041;-63
2022/04/21 08:52:15;;;;;;;1.63;0.90;;;;;;;;;;5054867;28;20045;-64
2022/04/21 08:54:42;;;;;;;2.08;1.10;;;;;;;;;;5014113;28;20087;-63
2022/04/21 08:57:09;;;;;;;2.85;0.95;;;;;;;;;;5031431;28;20050;-62
2022/04/21 08:59:36;;;;;;;1.88;0.93;;;;;;;;;;5028215;28;20049;-63
2022/04/21 09:02:02;;;;;;;2.05;1.13;;;;;;;;;;5027670;28;20045;-63
2022/04/21 09:04:32;;;;;;;3.13;1.10;;;;;;;;;;5042644;28;20045;-62
2022/04/21 09:07:13;;;;;;;2.05;1.10;;;;;;;;;;5029457;28;20372;-63
2022/04/21 09:09:39;;;;;;;3.13;1.33;;;;;;;;;;5029179;28;20042;-63
2022/04/21 09:12:05;;;;;;;3.20;1.10;;;;;;;;;;5030521;28;20037;-64
2022/04/21 09:14:31;;;;;;;2.40;1.00;;;;;;;;;;5031189;28;20433;-63
2022/04/21 09:17:05;;;;;;;2.20;1.10;;;;;;;;;;5035527;28;20522;-63
2022/04/21 09:19:31;;;;;;;1.33;1.05;;;;;;;;;;5020236;28;20049;-64
2022/04/21 09:21:57;;;;;;;2.58;1.20;;;;;;;;;;5010023;28;20080;-64
2022/04/21 09:24:29;;;;;;;3.33;1.00;;;;;;;;;;5047341;28;20495;-63
2022/04/21 09:26:56;;;;;;;2.10;1.20;;;;;;;;;;5010155;28;20403;-64
2022/04/21 09:29:33;;;;;;;1.30;1.02;;;;;;;;;;5030383;28;20041;-63
2022/04/21 09:32:00;;;;;;;1.70;1.00;;;;;;;;;;5034727;28;20480;-64
2022/04/21 09:34:26;;;;;;;3.25;1.10;;;;;;;;;;5031103;28;20427;-64
2022/04/21 09:36:59;;;;;;;3.10;1.23;;;;;;;;;;5030651;28;20049;-64
2022/04/21 09:39:28;;;;;;;1.80;0.90;;;;;;;;;;5033141;28;20531;-65
2022/04/21 09:41:55;;;;;;;1.92;0.73;;;;;;;;;;5031911;28;20080;-63
2022/04/21 09:47:19;;;;;;;1.35;0.80;;;;;;;;;;5033122;28;20084;-63
2022/04/21 09:49:46;;;;;;;3.42;0.90;;;;;;;;;;5039974;28;20399;-63
2022/04/21 09:52:12;;;;;;;1.92;0.70;;;;;;;;;;5033709;28;20092;-63
2022/04/21 09:54:45;;;;;;;1.77;0.60;;;;;;;;;;5030867;28;20271;-63
2022/04/21 09:57:13;;;;;;;1.17;0.63;;;;;;;;;;5041380;28;20071;-63
2022/04/21 09:59:41;;;;;;;3.97;1.20;;;;;;;;;;5034692;28;20107;-63
2022/04/21 10:02:08;;;;;;;2.42;0.82;;;;;;;;;;5019700;28;20095;-64
2022/04/21 10:04:35;;;;;;;2.83;0.90;;;;;;;;;;5037140;28;20068;-64
2022/04/21 10:07:08;;;;;;;1.83;1.00;;;;;;;;;;5053754;28;20133;-63
2022/04/21 10:09:34;;;;;;;1.60;0.93;;;;;;;;;;5033468;28;20048;-63
2022/04/21 10:12:00;;;;;;;3.17;1.13;;;;;;;;;;5051993;28;20080;-62
2022/04/21 10:14:27;;;;;;;2.83;1.25;;;;;;;;;;5043054;28;20509;-63
2022/04/21 10:16:53;;;;;;;2.33;0.88;;;;;;;;;;5030112;28;20038;-63
2022/04/21 10:19:22;;;;;;;3.60;1.10;;;;;;;;;;5012253;28;20452;-62
2022/04/21 10:21:53;;;;;;;2.72;0.68;;;;;;;;;;5030830;28;20403;-62
2022/04/21 10:24:23;;;;;;;1.73;1.00;;;;;;;;;;5056350;28;20473;-64
2022/04/21 10:26:49;;;;;;;2.47;0.95;;;;;;;;;;5011952;28;20029;-62
2022/04/21 10:29:23;;;;;;;2.80;0.70;;;;;;;;;;5030123;28;20034;-63
2022/04/21 10:31:57;;;;;;;1.33;0.73;;;;;;;;;;5036295;28;20048;-62
2022/04/21 10:34:27;;;;;;;1.92;0.82;;;;;;;;;;5030380;28;20071;-62
2022/04/21 10:37:07;;;;;;;1.40;0.80;;;;;;;;;;5030361;28;20439;-63
2022/04/21 10:39:33;;;;;;;2.10;1.33;;;;;;;;;;5033621;28;20053;-61
2022/04/21 10:42:06;;;;;;;2.70;0.95;;;;;;;;;;5034696;28;20060;-62
2022/04/21 10:44:41;;;;;;;1.15;0.77;;;;;;;;;;5014827;28;20095;-61
2022/04/21 10:47:26;;;;;;;1.88;0.73;;;;;;;;;;5034315;28;20049;-62
2022/04/21 10:50:14;;;;;;;1.48;1.17;;;;;;;;;;5031464;28;20051;-62
2022/04/21 10:58:30;;;;;;;2.90;0.88;;;;;;;;;;5008396;28;20053;-61
2022/04/21 11:01:16;;;;;;;2.08;0.93;;;;;;;;;;5008265;28;20044;-61
2022/04/21 11:03:43;;;;;;;3.58;1.02;;;;;;;;;;5007037;28;20112;-63
2022/04/21 11:06:10;;;;;;;2.33;1.23;;;;;;;;;;4990374;28;20404;-61
2022/04/21 11:08:36;;;;;;;2.58;1.30;;;;;;;;;;5008746;28;20092;-61
2022/04/21 11:11:03;;;;;;;2.38;1.05;;;;;;;;;;5029551;28;20089;-62
2022/04/21 11:13:48;;;;;;;1.63;1.13;;;;;;;;;;5028766;28;20044;-62
2022/04/21 11:16:34;;;;;;;2.88;1.05;;;;;;;;;;5055869;28;20045;-62
2022/04/21 11:19:19;;;;;;;2.00;1.45;;;;;;;;;;5030437;28;20672;-61
2022/04/21 11:21:52;;;;;;;2.20;1.20;;;;;;;;;;5028108;28;20399;-61
2022/04/21 11:24:18;;;;;;;2.28;1.17;;;;;;;;;;5030060;28;20106;-61
2022/04/21 11:26:46;;;;;;;3.35;1.20;;;;;;;;;;5014785;28;20044;-62
2022/04/21 11:29:12;;;;;;;3.72;1.70;;;;;;;;;;5034037;28;20124;-61
2022/04/21 11:31:39;;;;;;;3.45;1.42;;;;;;;;;;5034318;28;20409;-62
2022/04/21 11:34:05;;;;;;;4.30;1.83;;;;;;;;;;5033047;28;20076;-62
2022/04/21 11:36:40;;;;;;;3.10;1.50;;;;;;;;;;5028762;28;20045;-63
2022/04/21 11:39:07;;;;;;;1.67;1.17;;;;;;;;;;5028346;28;20460;-61
2022/04/21 11:41:34;;;;;;;2.22;1.58;;;;;;;;;;5036029;28;20583;-62
2022/04/21 11:44:01;;;;;;;2.00;1.35;;;;;;;;;;5027419;28;20048;-62
2022/04/21 11:46:27;;;;;;;3.30;1.60;;;;;;;;;;5054712;28;20049;-62
2022/04/21 11:49:00;;;;;;;1.50;1.20;;;;;;;;;;5031815;28;20061;-61
2022/04/21 11:51:26;;;;;;;;;;;;;;;;;;5029100;28;20041;-61
2022/04/21 11:53:52;;;;;;;3.08;1.38;;;;;;;;;;5028813;28;19921;-62
2022/04/21 11:56:21;;;;;;;3.08;1.40;;;;;;;;;;5027780;28;20120;-62
2022/04/21 11:58:47;;;;;;;2.47;1.00;;;;;;;;;;5032407;28;20391;-61
2022/04/21 12:06:49;;;;;;;2.22;1.13;;;;;;;;;;5028991;28;20550;-62
2022/04/21 12:09:16;;;;;;;2.72;1.48;;;;;;;;;;5032026;28;20048;-62
2022/04/21 12:11:43;;;;;;;2.40;1.27;;;;;;;;;;5052757;28;20607;-62
2022/04/21 12:14:09;;;;;;;2.38;1.45;;;;;;;;;;5027955;28;20033;-61
2022/04/21 12:16:38;;;;;;;3.10;1.38;;;;;;;;;;5043287;28;20052;-61
2022/04/21 12:19:23;;;;;;;2.17;1.27;;;;;;;;;;5029168;28;20037;-62
2022/04/21 12:21:57;;;;;;;2.63;1.52;;;;;;;;;;5029203;28;20132;-62
2022/04/21 12:24:29;;;;;;;2.13;1.17;;;;;;;;;;5028767;28;20037;-63
2022/04/21 12:26:55;;;;;;;1.55;1.35;;;;;;;;;;5029417;28;20041;-62
2022/04/21 12:29:21;;;;;;;2.72;1.05;;;;;;;;;;5027646;28;20041;-62
2022/04/21 12:31:52;;;;;;;1.95;1.08;;;;;;;;;;5027724;28;20041;-62
2022/04/21 12:34:22;;;;;;;2.60;1.20;;;;;;;;;;5031580;28;20095;-62
2022/04/21 12:36:52;;;;;;;2.78;1.38;;;;;;;;;;5028424;28;20034;-62
2022/04/21 12:39:20;;;;;;;2.47;1.65;;;;;;;;;;5029542;28;20064;-62
2022/04/21 12:41:46;;;;;;;2.80;1.55;;;;;;;;;;5027947;28;20086;-61
2022/04/21 12:44:12;;;;;;;2.15;1.65;;;;;;;;;;5024996;28;20045;-63
2022/04/21 12:46:41;;;;;;;2.13;1.35;;;;;;;;;;5027624;28;20038;-64
2022/04/21 12:49:08;;;;;;;3.10;1.75;;;;;;;;;;5028772;28;20383;-64
2022/04/21 12:51:34;;;;;;;2.33;2.13;;;;;;;;;;5030654;28;20042;-65
2022/04/21 12:54:00;;;;;;;4.00;1.50;;;;;;;;;;5028123;28;20461;-64
2022/04/21 12:56:36;;;;;;;3.15;1.58;;;;;;;;;;5026516;28;20495;-64
2022/04/21 12:59:03;;;;;;;2.00;1.80;;;;;;;;;;4990187;28;20057;-63
2022/04/21 13:01:29;;;;;;;2.47;1.95;;;;;;;;;;5031764;28;20136;-65
2022/04/21 13:03:55;;;;;;;3.80;1.85;;;;;;;;;;5035820;28;20044;-63
2022/04/21 13:06:26;;;;;;;3.22;1.77;;;;;;;;;;5032711;28;20045;-63
2022/04/21 13:08:52;;;;;;;4.07;2.10;;;;;;;;;;5039401;28;20044;-63
2022/04/21 13:11:18;;;;;;;3.20;2.05;;;;;;;;;;5035407;28;20045;-64
2022/04/21 13:13:44;;;;;;;2.63;2.20;;;;;;;;;;5064731;28;20087;-65
2022/04/21 13:16:10;;;;;;;4.22;2.45;;;;;;;;;;5056994;28;20077;-63
2022/04/21 13:18:36;;;;;;;3.53;2.30;;;;;;;;;;5032852;28;20065;-64
2022/04/21 13:23:47;;;;;;;3.22;2.50;;;;;;;;;;5032654;28;20567;-64
2022/04/21 13:26:13;;;;;;;4.20;2.70;;;;;;;;;;5055958;28;20144;-64
2022/04/21 13:28:39;;;;;;;4.63;2.85;;;;;;;;;;5031596;28;20087;-63
2022/04/21 13:33:50;;;;;;;3.70;2.88;;;;;;;;;;5034707;28;20037;-63
2022/04/21 13:36:16;;;;;;;5.22;3.10;;;;;;;;;;5031856;28;20111;-64
2022/04/21 13:38:44;;;;;;;3.63;3.25;;;;;;;;;;5059063;28;20376;-63
2022/04/21 13:41:11;;;;;;;4.80;3.15;;;;;;;;;;5031143;28;20124;-64
2022/04/21 13:43:37;;;;;;;4.90;3.95;;;;;;;;;;5032988;28;20549;-64
2022/04/21 13:46:03;;;;;;;6.90;3.67;;;;;;;;;;5056339;28;20041;-64
2022/04/21 13:48:29;;;;;;;5.60;3.97;;;;;;;;;;5017715;28;20041;-64
2022/04/21 13:50:55;;;;;;;5.25;4.43;;;;;;;;;;5056308;28;20037;-63
2022/04/21 13:53:21;;;;;;;4.38;4.05;;;;;;;;;;5053850;28;20045;-64
2022/04/21 13:55:49;;;;;;;5.28;4.30;;;;;;;;;;5030934;28;20047;-65
2022/04/21 13:58:15;;;;;;;5.63;4.35;;;;;;;;;;5054025;28;20072;-64
2022/04/21 14:00:44;;;;;;;4.97;4.55;;;;;;;;;;5031112;28;20041;-65
2022/04/21 14:03:11;;;;;;;6.60;4.75;;;;;;;;;;5035775;28;20906;-64
2022/04/21 14:05:37;;;;;;;4.72;4.30;;;;;;;;;;5059026;28;20073;-66
2022/04/21 14:08:04;;;;;;;6.03;4.45;;;;;;;;;;5036404;28;20796;-64
2022/04/21 14:10:30;;;;;;;4.28;3.88;;;;;;;;;;5029824;28;20041;-64
2022/04/21 14:12:56;;;;;;;5.05;4.03;;;;;;;;;;5030168;28;20132;-64
2022/04/21 14:15:24;;;;;;;7.63;5.05;;;;;;;;;;5051021;28;20811;-63
2022/04/21 14:17:50;;;;;;;4.85;4.35;;;;;;;;;;5030102;28;20592;-63
2022/04/21 14:20:17;;;;;;;4.75;4.35;;;;;;;;;;5028359;28;20083;-63
2022/04/21 14:22:43;;;;;;;4.97;4.55;;;;;;;;;;5056336;28;20052;-64
2022/04/21 14:25:09;;;;;;;8.63;5.32;;;;;;;;;;5054258;28;20430;-64
2022/04/21 14:27:35;;;;;;;7.20;5.90;;;;;;;;;;5050659;28;20045;-64
2022/04/21 14:30:03;;;;;;;6.95;6.13;;;;;;;;;;5015583;28;20555;-64
2022/04/21 14:32:29;;;;;;;6.97;6.00;;;;;;;;;;5030727;28;20038;-63
2022/04/21 14:34:55;;;;;;;5.75;5.10;;;;;;;;;;5031521;28;20047;-64
2022/04/21 14:45:36;;;;;;;11.35;7.93;;;;;;;;;;5051776;28;20411;-63
2022/04/21 14:48:03;;;;;;;10.13;6.95;;;;;;;;;;5029471;28;20043;-64
2022/04/21 14:50:29;;;;;;;6.72;6.13;;;;;;;;;;5057563;28;20041;-63
2022/04/21 14:52:55;;;;;;;7.57;6.80;;;;;;;;;;5031051;28;20072;-62
2022/04/21 14:55:21;;;;;;;7.78;7.00;;;;;;;;;;5030931;28;20044;-63
2022/04/21 14:57:47;;;;;;;10.95;7.03;;;;;;;;;;5030340;28;20594;-64
2022/04/21 15:00:13;;;;;;;8.07;7.28;;;;;;;;;;5065379;28;20407;-64
2022/04/21 15:02:40;;;;;;;9.50;7.60;;;;;;;;;;5034043;28;20048;-63
2022/04/21 15:05:06;;;;;;;6.43;5.78;;;;;;;;;;5028455;28;20590;-64
2022/04/21 15:07:32;;;;;;;7.18;5.85;;;;;;;;;;5028115;28;20140;-63
2022/04/21 15:09:58;;;;;;;7.78;6.75;;;;;;;;;;5057900;28;20069;-63
2022/04/21 15:12:24;;;;;;;8.85;7.95;;;;;;;;;;5029948;28;20045;-63
2022/04/21 15:14:50;;;;;;;7.30;6.57;;;;;;;;;;5032009;28;20559;-64
2022/04/21 15:17:17;;;;;;;9.88;8.02;;;;;;;;;;5032119;28;20171;-63
2022/04/21 15:19:47;;;;;;;9.43;6.70;;;;;;;;;;5010896;28;20049;-64
2022/04/21 15:22:17;;;;;;;8.85;7.78;;;;;;;;;;5027539;28;20045;-63
2022/04/21 15:24:43;;;;;;;8.50;7.60;;;;;;;;;;5025993;28;20117;-64
2022/04/21 15:27:09;;;;;;;8.95;8.05;;;;;;;;;;5028537;28;20487;-63
2022/04/21 15:29:35;;;;;;;9.15;7.47;;;;;;;;;;5028742;28;20049;-64
2022/04/21 15:32:01;;;;;;;7.13;6.43;;;;;;;;;;5026518;28;20041;-65
2022/04/21 15:34:33;;;;;;;8.38;7.13;;;;;;;;;;5025269;28;20116;-63
2022/04/21 15:37:02;;;;;;;7.90;6.97;;;;;;;;;;5036712;28;20507;-64
2022/04/21 15:39:28;;;;;;;7.82;7.00;;;;;;;;;;5010040;28;20056;-64
2022/04/21 15:41:54;;;;;;;6.72;5.90;;;;;;;;;;5023904;28;20466;-63
2022/04/21 15:44:20;;;;;;;6.95;6.25;;;;;;;;;;5027508;28;20487;-64